East Hebron, New York
Current Conditions -  °F | °C
As of 9:53 AM on Wednesday 22 Oct 2014 (Local Time) from KGFL Reporting Station
Overcast Overcast  
Wind Chill: 51°   Ceiling: 3300
Heat Index: 51°   Visibility: 10mi
Dew Point: 44°   Wind: 14mph
Humidity: 77%   Direction: 20°NNE
Pressure: 30.12"   Gusts: NA
Location:  43.2004°N, 73.3317°W
Report Text: KGFL 221353Z AUTO 02012KT 10SM FEW019 SCT024 OVC033 11/07 A3012 RMK AO2 SLP204 T01060067
Loading
Personal Weather Stations






























Interactive Weather Map
Tropical Storm Tracking
New forecast layout! Learn more

10-Day Weather Forecast

Advertisements
Track Severe Weather on mobile